Time;durP1;ratioP1;P1;durP2;ratioP2;P2;SDS_P1;SDS_P2;PMS_P1;PMS_P2;Temp;Humidity;BMP_temperature;BMP_pressure;BME280_temperature;BME280_humidity;BME280_pressure;Samples;Min_cycle;Max_cycle;Signal;HPM_P1;HPM_P2
2024/02/28 00:01:26;;;;;;;76.07;24.40;;;-1.80;99.90;;;;;;5038316;28;20027;-63
2024/02/28 00:03:51;;;;;;;82.57;25.00;;;-1.80;99.90;;;;;;5038024;28;20104;-62
2024/02/28 00:06:17;;;;;;;86.55;24.08;;;-1.90;99.90;;;;;;5034944;28;20097;-63
2024/02/28 00:08:43;;;;;;;86.13;25.08;;;-1.90;99.90;;;;;;5040647;28;20032;-63
2024/02/28 00:11:09;;;;;;;95.20;27.33;;;-2.00;99.90;;;;;;5039992;28;20507;-62
2024/02/28 00:13:35;;;;;;;93.38;26.95;;;-2.20;99.90;;;;;;5035165;28;20041;-63
2024/02/28 00:16:01;;;;;;;85.45;24.20;;;-2.20;99.90;;;;;;5040223;28;20087;-62
2024/02/28 00:18:26;;;;;;;87.30;25.20;;;-2.30;99.90;;;;;;5039063;28;20544;-63
2024/02/28 00:20:54;;;;;;;88.45;24.02;;;-2.40;99.90;;;;;;5041890;28;20108;-63
2024/02/28 00:23:19;;;;;;;91.57;24.13;;;-2.30;99.90;;;;;;5041037;28;20021;-63
2024/02/28 00:25:45;;;;;;;76.65;23.80;;;-2.20;99.90;;;;;;5038804;28;20033;-63
2024/02/28 00:28:12;;;;;;;83.55;24.45;;;-2.10;99.90;;;;;;5044781;28;20068;-63
2024/02/28 00:30:38;;;;;;;84.43;24.52;;;-2.00;99.90;;;;;;5038864;28;20076;-62
2024/02/28 00:33:03;;;;;;;107.82;24.88;;;-1.90;99.90;;;;;;5043286;28;20029;-63
2024/02/28 00:35:34;;;;;;;134.63;24.20;;;-1.80;99.90;;;;;;5045278;28;20033;-62
2024/02/28 00:38:01;;;;;;;122.38;26.88;;;-1.50;99.90;;;;;;5043716;28;20032;-63
2024/02/28 00:40:26;;;;;;;141.25;29.80;;;-1.20;99.90;;;;;;5042782;28;20018;-63
2024/02/28 00:42:53;;;;;;;114.65;26.70;;;-1.10;99.90;;;;;;5047082;28;20643;-62
2024/02/28 00:45:18;;;;;;;76.97;21.90;;;-1.00;99.90;;;;;;5045589;28;20074;-63
2024/02/28 00:47:44;;;;;;;131.77;29.70;;;-0.90;99.90;;;;;;5041026;28;20489;-65
2024/02/28 00:50:11;;;;;;;97.65;25.42;;;-0.80;99.90;;;;;;5037131;28;20029;-63
2024/02/28 00:52:37;;;;;;;124.13;28.92;;;-0.80;99.90;;;;;;5036232;28;20083;-63
2024/02/28 00:55:04;;;;;;;122.28;29.30;;;-0.70;99.90;;;;;;5036181;28;20030;-63
2024/02/28 00:57:30;;;;;;;181.60;31.27;;;-0.70;99.90;;;;;;5040580;28;20115;-63
2024/02/28 00:59:56;;;;;;;125.82;28.05;;;-0.70;99.90;;;;;;5032201;28;20532;-63
2024/02/28 01:02:21;;;;;;;127.05;27.80;;;-0.70;99.90;;;;;;5045048;28;20465;-63
2024/02/28 01:04:47;;;;;;;110.55;29.08;;;-0.80;99.90;;;;;;5044363;28;20028;-63
2024/02/28 01:07:13;;;;;;;189.15;28.65;;;-0.90;99.90;;;;;;5036751;28;20021;-63
2024/02/28 01:09:38;;;;;;;244.77;33.55;;;-0.90;99.90;;;;;;5043777;28;20491;-63
2024/02/28 01:12:04;;;;;;;357.33;37.67;;;-0.90;99.90;;;;;;5042593;28;20084;-63
2024/02/28 01:14:30;;;;;;;119.03;26.80;;;-0.90;99.90;;;;;;5042849;28;20435;-63
2024/02/28 01:16:55;;;;;;;161.60;28.25;;;-0.90;99.90;;;;;;5041002;28;20104;-63
2024/02/28 01:19:21;;;;;;;132.68;30.25;;;-0.90;99.90;;;;;;5041130;28;20119;-62
2024/02/28 01:21:46;;;;;;;246.30;39.83;;;-0.90;99.90;;;;;;5032734;28;20029;-63
2024/02/28 01:24:12;;;;;;;245.45;36.53;;;-0.90;99.90;;;;;;5042036;28;20083;-63
2024/02/28 01:26:37;;;;;;;171.52;35.08;;;-1.00;99.90;;;;;;5040219;28;20117;-62
2024/02/28 01:29:03;;;;;;;157.38;32.47;;;-1.00;99.90;;;;;;5036581;28;20626;-63
2024/02/28 01:31:29;;;;;;;107.53;29.60;;;-1.10;99.90;;;;;;5040708;28;20063;-62
2024/02/28 01:33:55;;;;;;;129.73;30.08;;;-1.10;99.90;;;;;;5035266;28;20415;-63
2024/02/28 01:36:21;;;;;;;137.77;31.27;;;-1.20;99.90;;;;;;5046701;28;20098;-63
2024/02/28 01:38:47;;;;;;;111.13;28.98;;;-1.20;99.90;;;;;;5037203;28;20455;-63
2024/02/28 01:41:12;;;;;;;95.45;27.80;;;-1.20;99.90;;;;;;5039076;28;20136;-63
2024/02/28 01:43:38;;;;;;;128.15;28.65;;;-1.10;99.90;;;;;;5037617;28;20475;-63
2024/02/28 01:46:18;;;;;;;87.20;28.00;;;-0.90;99.90;;;;;;5040460;28;20032;-63
2024/02/28 01:48:43;;;;;;;179.80;31.88;;;-0.90;99.90;;;;;;5039401;28;20092;-63
2024/02/28 01:51:10;;;;;;;107.43;29.70;;;-0.70;99.90;;;;;;5039377;28;20037;-63
2024/02/28 01:53:35;;;;;;;90.88;26.70;;;-0.70;99.90;;;;;;5037012;28;20124;-63
2024/02/28 01:56:02;;;;;;;85.93;25.85;;;-0.80;99.90;;;;;;5038025;28;20112;-63
2024/02/28 01:58:27;;;;;;;116.88;29.52;;;-0.90;99.90;;;;;;5037752;28;20132;-63
2024/02/28 02:00:53;;;;;;;106.97;28.05;;;-0.80;99.90;;;;;;5037338;28;20108;-64
2024/02/28 02:03:19;;;;;;;107.40;30.80;;;-0.80;99.90;;;;;;5040605;28;20099;-63
2024/02/28 02:05:45;;;;;;;93.95;28.92;;;-0.80;99.90;;;;;;5038190;28;20021;-63
2024/02/28 02:08:11;;;;;;;104.50;28.15;;;-0.70;99.90;;;;;;5039641;28;20072;-63
2024/02/28 02:10:37;;;;;;;91.53;28.38;;;-0.60;99.90;;;;;;5039231;28;20108;-63
2024/02/28 02:13:06;;;;;;;125.05;34.58;;;-0.60;99.90;;;;;;5038061;28;20108;-63
2024/02/28 02:15:32;;;;;;;109.13;27.98;;;-0.70;99.90;;;;;;5046834;28;20063;-63
2024/02/28 02:17:58;;;;;;;230.45;39.67;;;-0.70;99.90;;;;;;5037860;28;20053;-63
2024/02/28 02:20:26;;;;;;;126.22;30.08;;;-0.80;99.90;;;;;;5041016;28;20032;-63
2024/02/28 02:22:53;;;;;;;125.57;29.27;;;-0.80;99.90;;;;;;5035461;28;20034;-64
2024/02/28 02:25:18;;;;;;;126.82;28.38;;;-0.80;99.90;;;;;;5036120;28;20060;-63
2024/02/28 02:27:44;;;;;;;172.90;29.02;;;-0.80;99.90;;;;;;5036899;28;20061;-63
2024/02/28 02:30:10;;;;;;;148.35;32.33;;;-0.70;99.90;;;;;;5040762;28;20060;-63
2024/02/28 02:32:36;;;;;;;100.68;28.85;;;-0.70;99.90;;;;;;5037252;28;20025;-63
2024/02/28 02:35:02;;;;;;;114.10;28.35;;;-0.80;99.90;;;;;;5036547;28;20082;-63
2024/02/28 02:37:27;;;;;;;95.20;28.60;;;-0.80;99.90;;;;;;5044661;28;20038;-63
2024/02/28 02:39:53;;;;;;;91.47;27.33;;;-0.90;99.90;;;;;;5037012;28;20025;-63
2024/02/28 02:42:19;;;;;;;108.00;26.85;;;-1.00;99.90;;;;;;5040434;28;20026;-63
2024/02/28 02:44:45;;;;;;;331.63;42.05;;;-1.10;99.90;;;;;;5043342;28;20582;-63
2024/02/28 02:47:10;;;;;;;175.82;33.05;;;-1.10;99.90;;;;;;5041928;28;20043;-63
2024/02/28 02:49:36;;;;;;;93.40;26.33;;;-1.20;99.90;;;;;;5040571;28;20087;-63
2024/02/28 02:52:02;;;;;;;91.55;26.60;;;-1.30;99.90;;;;;;5041534;28;20021;-63
2024/02/28 02:54:27;;;;;;;165.60;30.52;;;-1.40;99.90;;;;;;5040098;28;20052;-63
2024/02/28 02:56:53;;;;;;;108.60;26.63;;;-1.40;99.90;;;;;;5039590;28;20112;-63
2024/02/28 02:59:21;;;;;;;85.43;25.58;;;-1.60;99.90;;;;;;5042581;28;20032;-63
2024/02/28 03:01:50;;;;;;;95.35;27.35;;;-1.70;99.90;;;;;;5039855;28;20087;-63
2024/02/28 03:04:15;;;;;;;91.55;26.33;;;-1.70;99.90;;;;;;5043520;28;20017;-63
2024/02/28 03:06:41;;;;;;;87.28;26.23;;;-1.80;99.90;;;;;;5035089;28;20091;-63
2024/02/28 03:09:07;;;;;;;96.38;25.88;;;-1.90;99.90;;;;;;5042531;28;20045;-63
2024/02/28 03:11:35;;;;;;;78.70;26.27;;;-2.00;99.90;;;;;;5041815;28;20017;-63
2024/02/28 03:14:00;;;;;;;87.63;25.60;;;-2.20;99.90;;;;;;5044932;28;20127;-63
2024/02/28 03:16:26;;;;;;;72.57;23.67;;;-2.00;99.90;;;;;;5043039;28;20120;-63
2024/02/28 03:18:52;;;;;;;77.22;24.73;;;-2.00;99.90;;;;;;5047542;28;20100;-63
2024/02/28 03:21:17;;;;;;;85.57;25.90;;;-1.70;99.90;;;;;;5043378;28;20021;-63
2024/02/28 03:23:43;;;;;;;86.63;27.20;;;-1.50;99.90;;;;;;5041833;28;20032;-63
2024/02/28 03:26:09;;;;;;;86.05;24.20;;;-1.50;99.90;;;;;;5036935;28;20029;-63
2024/02/28 03:28:34;;;;;;;77.97;25.42;;;-1.50;99.90;;;;;;5041356;28;20423;-63
2024/02/28 03:31:00;;;;;;;84.15;25.20;;;-1.40;99.90;;;;;;5033406;28;20033;-63
2024/02/28 03:33:25;;;;;;;72.40;24.60;;;-1.30;99.90;;;;;;5039007;28;20373;-63
2024/02/28 03:35:51;;;;;;;77.53;25.92;;;-1.10;99.90;;;;;;5043557;28;20640;-64
2024/02/28 03:38:16;;;;;;;83.20;25.55;;;-1.00;99.90;;;;;;5039792;28;20100;-63
2024/02/28 03:40:42;;;;;;;76.53;24.13;;;-0.90;99.90;;;;;;5041116;28;20029;-63
2024/02/28 03:43:08;;;;;;;88.00;26.50;;;-0.80;99.90;;;;;;5040507;28;20384;-63
2024/02/28 03:45:38;;;;;;;85.70;24.20;;;-0.70;99.90;;;;;;5040456;28;20061;-63
2024/02/28 03:48:04;;;;;;;82.97;25.95;;;-0.60;99.90;;;;;;5040863;28;20104;-63
2024/02/28 03:50:30;;;;;;;81.88;26.00;;;-0.60;99.90;;;;;;5041019;28;20048;-62
2024/02/28 03:52:55;;;;;;;91.55;27.55;;;-0.40;99.90;;;;;;5037989;28;20025;-63
2024/02/28 03:55:21;;;;;;;82.13;26.25;;;-0.30;99.90;;;;;;5040435;28;20125;-63
2024/02/28 03:57:47;;;;;;;124.30;29.70;;;-0.30;99.90;;;;;;5038385;28;20029;-63
2024/02/28 04:00:14;;;;;;;127.05;29.88;;;-0.30;99.90;;;;;;5037851;28;20028;-63
2024/02/28 04:02:39;;;;;;;117.88;30.67;;;-0.20;99.90;;;;;;5040001;28;20022;-63
2024/02/28 04:05:05;;;;;;;131.15;30.20;;;-0.10;99.90;;;;;;5041808;28;20107;-63
2024/02/28 04:07:31;;;;;;;101.97;25.27;;;-0.10;99.90;;;;;;5041000;28;20441;-63
2024/02/28 04:09:56;;;;;;;92.43;27.88;;;0.00;99.90;;;;;;5040453;28;20022;-63
2024/02/28 04:12:22;;;;;;;95.78;27.42;;;0.10;99.90;;;;;;5041943;28;20029;-63
2024/02/28 04:14:47;;;;;;;109.47;27.45;;;0.20;99.90;;;;;;5037136;28;20046;-63
2024/02/28 04:17:13;;;;;;;146.38;28.88;;;0.20;99.90;;;;;;5042659;28;20044;-63
2024/02/28 04:19:39;;;;;;;81.55;25.48;;;0.20;99.90;;;;;;5040982;28;20161;-64
2024/02/28 04:22:05;;;;;;;83.97;24.83;;;0.20;99.90;;;;;;5041884;28;20024;-63
2024/02/28 04:24:32;;;;;;;90.35;26.33;;;0.20;99.90;;;;;;5041237;28;20099;-63
2024/02/28 04:26:59;;;;;;;95.05;27.75;;;0.20;99.90;;;;;;5049785;28;20024;-62
2024/02/28 04:29:25;;;;;;;109.03;30.02;;;0.20;99.90;;;;;;5049540;28;20023;-63
2024/02/28 04:31:50;;;;;;;54.00;16.00;;;0.30;99.90;;;;;;5057497;28;20020;-63
2024/02/28 04:34:16;;;;;;;103.53;27.08;;;0.40;99.90;;;;;;5044708;28;20100;-64
2024/02/28 04:36:42;;;;;;;65.97;17.88;;;0.40;99.90;;;;;;5045795;28;20049;-64
2024/02/28 04:39:07;;;;;;;83.78;22.77;;;0.30;99.90;;;;;;5042157;28;20056;-64
2024/02/28 04:41:33;;;;;;;89.78;25.73;;;0.30;99.90;;;;;;5039596;28;20270;-63
2024/02/28 04:43:59;;;;;;;119.22;28.05;;;0.40;99.90;;;;;;5037940;28;20025;-63
2024/02/28 04:46:25;;;;;;;79.90;23.30;;;0.40;99.90;;;;;;5040000;28;20028;-63
2024/02/28 04:48:50;;;;;;;79.43;20.95;;;0.40;99.90;;;;;;5038977;28;20032;-63
2024/02/28 04:51:17;;;;;;;83.40;25.67;;;0.50;99.90;;;;;;5038857;28;20022;-63
2024/02/28 04:53:43;;;;;;;76.07;22.33;;;0.50;99.90;;;;;;5039706;28;20029;-63
2024/02/28 04:56:09;;;;;;;80.85;21.70;;;0.50;99.90;;;;;;5038604;28;20076;-63
2024/02/28 04:58:38;;;;;;;99.70;26.75;;;0.50;99.90;;;;;;5034615;28;20496;-63
2024/02/28 05:01:04;;;;;;;97.90;24.83;;;0.50;99.90;;;;;;5036701;28;20031;-63
2024/02/28 05:03:29;;;;;;;70.30;20.98;;;0.50;99.90;;;;;;5034688;28;20268;-63
2024/02/28 05:05:55;;;;;;;85.00;25.08;;;0.50;99.90;;;;;;5038828;28;20456;-64
2024/02/28 05:08:21;;;;;;;93.25;26.45;;;0.50;99.90;;;;;;5039235;28;20040;-64
2024/02/28 05:10:47;;;;;;;83.00;24.30;;;0.50;99.90;;;;;;5039165;28;20506;-62
2024/02/28 05:13:12;;;;;;;96.50;23.85;;;0.50;99.90;;;;;;5038210;28;20128;-65
2024/02/28 05:15:38;;;;;;;77.72;25.17;;;0.50;99.90;;;;;;5037706;28;20124;-65
2024/02/28 05:18:04;;;;;;;94.25;25.90;;;0.60;99.90;;;;;;5037595;28;20419;-65
2024/02/28 05:20:30;;;;;;;102.28;26.23;;;0.60;99.90;;;;;;5040450;28;20370;-65
2024/02/28 05:22:55;;;;;;;108.05;25.13;;;0.60;99.90;;;;;;5032711;28;20045;-65
2024/02/28 05:25:21;;;;;;;87.80;24.83;;;0.60;99.90;;;;;;5039479;28;20068;-65
2024/02/28 05:27:46;;;;;;;83.70;27.02;;;0.60;99.90;;;;;;5039022;28;20040;-65
2024/02/28 05:30:12;;;;;;;97.15;26.65;;;0.70;99.90;;;;;;5036304;28;20406;-65
2024/02/28 05:32:38;;;;;;;98.70;27.85;;;0.70;99.90;;;;;;5035510;28;20029;-65
2024/02/28 05:35:04;;;;;;;105.63;25.08;;;0.70;99.90;;;;;;5040908;28;20030;-65
2024/02/28 05:37:29;;;;;;;83.57;23.17;;;0.70;99.90;;;;;;5036622;28;20036;-64
2024/02/28 05:39:55;;;;;;;82.03;23.88;;;0.70;99.90;;;;;;5031936;28;20013;-65
2024/02/28 05:42:24;;;;;;;88.95;23.52;;;0.80;99.90;;;;;;5035899;28;20053;-65
2024/02/28 05:44:50;;;;;;;95.72;22.65;;;0.80;99.90;;;;;;5037330;28;20013;-64
2024/02/28 05:47:16;;;;;;;96.70;26.35;;;0.80;99.90;;;;;;5031923;28;20018;-65
2024/02/28 05:49:42;;;;;;;103.00;24.17;;;0.80;99.90;;;;;;5041132;28;20496;-64
2024/02/28 05:52:07;;;;;;;97.70;26.15;;;0.90;99.90;;;;;;5033538;28;20017;-65
2024/02/28 05:54:36;;;;;;;102.50;26.38;;;0.90;99.90;;;;;;5034139;28;20112;-65
2024/02/28 05:57:02;;;;;;;113.80;26.90;;;0.90;99.90;;;;;;5045921;28;20622;-65
2024/02/28 05:59:27;;;;;;;109.63;26.90;;;0.90;99.90;;;;;;5036759;28;20028;-65
2024/02/28 06:01:53;;;;;;;94.40;24.88;;;1.00;99.90;;;;;;5032483;28;20044;-65
2024/02/28 06:04:19;;;;;;;105.05;25.45;;;1.00;99.90;;;;;;5043444;28;20025;-64
2024/02/28 06:06:44;;;;;;;119.28;27.52;;;1.00;99.90;;;;;;5036276;28;20036;-64
2024/02/28 06:09:10;;;;;;;106.07;26.52;;;1.00;99.90;;;;;;5038744;28;20075;-64
2024/02/28 06:11:36;;;;;;;99.38;27.23;;;1.10;99.90;;;;;;5035937;28;20029;-65
2024/02/28 06:14:03;;;;;;;106.50;24.42;;;1.10;99.90;;;;;;5039464;28;20609;-64
2024/02/28 06:16:29;;;;;;;107.15;26.10;;;1.10;99.90;;;;;;5039564;28;20061;-64
2024/02/28 06:18:55;;;;;;;119.80;28.23;;;1.10;99.90;;;;;;5046352;28;20029;-64
2024/02/28 06:21:24;;;;;;;83.63;22.30;;;1.10;99.90;;;;;;5044913;28;20048;-64
2024/02/28 06:23:50;;;;;;;117.75;27.27;;;1.10;99.90;;;;;;5039736;28;20084;-64
2024/02/28 06:26:18;;;;;;;103.75;24.33;;;1.10;99.90;;;;;;5046536;28;20407;-64
2024/02/28 06:28:47;;;;;;;96.07;24.20;;;1.10;99.90;;;;;;5035045;28;20029;-65
2024/02/28 06:31:17;;;;;;;119.45;32.03;;;1.10;99.90;;;;;;5039149;28;20100;-64
2024/02/28 06:33:44;;;;;;;92.32;22.73;;;1.10;99.90;;;;;;5038075;28;20120;-66
2024/02/28 06:36:09;;;;;;;116.32;28.00;;;2.40;99.90;;;;;;5046377;28;20036;-64
2024/02/28 06:38:35;;;;;;;113.22;28.13;;;1.10;99.90;;;;;;5041866;28;20044;-64
2024/02/28 06:41:05;;;;;;;110.55;26.58;;;1.20;99.90;;;;;;5042612;28;20025;-64
2024/02/28 06:43:33;;;;;;;114.15;27.38;;;1.20;99.90;;;;;;5055704;28;20028;-64
2024/02/28 06:45:59;;;;;;;108.80;28.67;;;1.20;99.90;;;;;;5043538;28;20421;-64
2024/02/28 06:48:24;;;;;;;117.97;28.42;;;1.20;99.90;;;;;;5039979;28;20045;-64
2024/02/28 06:50:50;;;;;;;129.13;32.90;;;1.20;99.90;;;;;;5038327;28;20033;-63
2024/02/28 06:53:15;;;;;;;119.63;29.55;;;1.20;99.90;;;;;;5034119;28;20036;-64
2024/02/28 06:55:42;;;;;;;104.97;28.30;;;1.20;99.90;;;;;;5034577;28;20454;-64
2024/02/28 06:58:07;;;;;;;110.57;27.98;;;1.10;99.90;;;;;;5034862;28;20025;-64
2024/02/28 07:00:33;;;;;;;104.88;26.40;;;1.10;99.90;;;;;;5038982;28;20044;-64
2024/02/28 07:02:59;;;;;;;97.30;24.73;;;1.10;99.90;;;;;;5036032;28;20049;-64
2024/02/28 07:05:24;;;;;;;102.10;27.60;;;1.10;99.90;;;;;;5042713;28;20021;-64
2024/02/28 07:07:50;;;;;;;93.93;24.20;;;1.10;99.90;;;;;;5040828;28;20472;-64
2024/02/28 07:10:16;;;;;;;101.60;26.33;;;1.00;99.90;;;;;;5038547;28;20109;-64
2024/02/28 07:12:41;;;;;;;108.03;26.50;;;1.00;99.90;;;;;;5036173;28;20029;-64
2024/02/28 07:15:07;;;;;;;111.93;25.80;;;1.00;99.90;;;;;;5044620;28;20049;-63
2024/02/28 07:17:33;;;;;;;100.65;29.15;;;1.00;99.90;;;;;;5038939;28;20025;-64
2024/02/28 07:19:58;;;;;;;100.13;25.88;;;1.00;99.90;;;;;;5041755;28;20530;-64
2024/02/28 07:22:24;;;;;;;49.72;13.77;;;1.00;99.90;;;;;;5040369;28;20070;-64
2024/02/28 07:24:49;;;;;;;78.80;20.95;;;1.00;99.90;;;;;;5041590;28;20025;-63
2024/02/28 07:27:16;;;;;;;99.95;28.33;;;1.10;99.90;;;;;;5036215;28;20052;-63
2024/02/28 07:29:41;;;;;;;110.10;24.52;;;1.10;99.90;;;;;;5039864;28;20021;-63
2024/02/28 07:32:07;;;;;;;91.68;23.45;;;1.20;99.90;;;;;;5035925;28;20032;-64
2024/02/28 07:34:33;;;;;;;95.47;22.92;;;1.30;99.90;;;;;;5046547;28;20483;-64
2024/02/28 07:36:59;;;;;;;91.97;23.60;;;1.30;99.90;;;;;;5046253;28;20021;-63
2024/02/28 07:39:25;;;;;;;104.75;26.27;;;1.40;99.90;;;;;;5038475;28;20249;-64
2024/02/28 07:41:51;;;;;;;106.50;26.02;;;2.50;99.90;;;;;;5037612;28;20129;-64
2024/02/28 07:44:16;;;;;;;110.65;28.85;;;1.40;99.90;;;;;;5037871;28;20115;-64
2024/02/28 07:46:42;;;;;;;119.60;28.50;;;1.50;99.90;;;;;;5039899;28;20025;-63
2024/02/28 07:49:08;;;;;;;95.97;26.10;;;1.50;99.90;;;;;;5032167;28;20029;-64
2024/02/28 07:51:33;;;;;;;102.50;25.70;;;1.60;99.90;;;;;;5040644;28;20036;-64
2024/02/28 07:53:59;;;;;;;104.47;25.15;;;1.70;99.90;;;;;;5041747;28;20029;-64
2024/02/28 07:56:25;;;;;;;91.55;26.33;;;1.80;99.90;;;;;;5038123;28;20033;-64
2024/02/28 07:58:50;;;;;;;105.18;27.17;;;1.90;99.90;;;;;;5037279;28;20047;-64
2024/02/28 08:01:16;;;;;;;97.65;26.63;;;2.00;99.90;;;;;;5039356;28;20028;-64
2024/02/28 08:03:42;;;;;;;105.05;28.70;;;2.10;99.90;;;;;;5039962;28;20021;-62
2024/02/28 08:06:11;;;;;;;92.30;26.95;;;2.30;99.90;;;;;;5039941;28;20022;-64
2024/02/28 08:08:37;;;;;;;88.05;24.90;;;2.50;99.90;;;;;;5037381;28;20052;-63
2024/02/28 08:11:03;;;;;;;93.10;25.23;;;2.60;99.90;;;;;;5044025;28;20029;-64
2024/02/28 08:13:29;;;;;;;86.90;24.83;;;2.70;99.90;;;;;;5037571;28;20058;-63
2024/02/28 08:15:55;;;;;;;88.68;23.58;;;2.80;99.90;;;;;;5037967;28;20029;-64
2024/02/28 08:18:20;;;;;;;85.00;24.90;;;2.90;99.90;;;;;;5037326;28;20465;-62
2024/02/28 08:20:46;;;;;;;87.25;24.23;;;3.00;99.90;;;;;;5046127;28;20033;-64
2024/02/28 08:23:11;;;;;;;87.90;24.65;;;3.10;99.90;;;;;;5034287;28;20021;-64
2024/02/28 08:25:37;;;;;;;80.30;25.45;;;3.10;99.90;;;;;;5038584;28;20038;-63
2024/02/28 08:28:03;;;;;;;81.38;24.45;;;3.20;99.90;;;;;;5039196;28;20051;-61
2024/02/28 08:30:30;;;;;;;99.10;28.00;;;3.20;99.90;;;;;;5035319;28;20515;-62
2024/02/28 08:32:57;;;;;;;87.10;26.40;;;3.20;99.90;;;;;;5038452;28;20055;-63
2024/02/28 08:35:23;;;;;;;81.28;25.42;;;3.20;99.90;;;;;;5039735;28;20364;-61
2024/02/28 08:37:49;;;;;;;95.78;26.38;;;3.30;99.90;;;;;;5040046;28;20025;-61
2024/02/28 08:40:15;;;;;;;81.88;24.55;;;3.40;99.90;;;;;;5040237;28;20033;-61
2024/02/28 08:42:41;;;;;;;80.85;25.45;;;3.50;99.90;;;;;;5037588;28;20076;-61
2024/02/28 08:45:07;;;;;;;79.90;23.75;;;3.70;99.90;;;;;;5037795;28;20029;-61
2024/02/28 08:47:33;;;;;;;82.45;24.45;;;3.70;99.90;;;;;;5051669;28;20030;-61
2024/02/28 08:49:59;;;;;;;82.47;26.00;;;3.80;99.90;;;;;;5038370;28;20032;-61
2024/02/28 08:52:25;;;;;;;82.03;25.02;;;3.80;99.90;;;;;;5040140;28;20040;-61
2024/02/28 08:54:51;;;;;;;92.78;26.70;;;3.90;99.90;;;;;;5036437;28;20033;-61
2024/02/28 08:57:16;;;;;;;76.25;26.05;;;4.00;99.90;;;;;;5041184;28;20025;-62
2024/02/28 08:59:42;;;;;;;69.53;23.80;;;4.00;99.90;;;;;;5036526;28;20419;-61
2024/02/28 09:02:08;;;;;;;69.38;21.35;;;4.10;99.90;;;;;;5036966;28;20447;-61
2024/02/28 09:04:34;;;;;;;69.13;22.55;;;4.20;99.90;;;;;;5035501;28;20058;-62
2024/02/28 09:07:00;;;;;;;72.82;22.90;;;4.30;99.90;;;;;;5035416;28;20497;-61
2024/02/28 09:09:26;;;;;;;82.80;23.15;;;4.30;99.90;;;;;;5037223;28;20029;-61
2024/02/28 09:11:51;;;;;;;77.43;24.15;;;4.40;99.90;;;;;;5042641;28;20090;-61
2024/02/28 09:14:17;;;;;;;79.90;24.70;;;4.40;99.90;;;;;;5037742;28;20456;-61
2024/02/28 09:16:43;;;;;;;70.90;23.67;;;4.40;99.90;;;;;;5052021;28;20793;-61
2024/02/28 09:19:08;;;;;;;76.38;24.35;;;4.40;99.90;;;;;;5042017;28;20025;-62
2024/02/28 09:21:34;;;;;;;73.47;24.20;;;4.50;99.90;;;;;;5035794;28;20052;-61
2024/02/28 09:24:01;;;;;;;50.63;17.08;;;4.60;99.90;;;;;;5036208;28;20026;-62
2024/02/28 09:26:27;;;;;;;63.13;21.35;;;4.80;99.90;;;;;;5032677;28;20026;-61
2024/02/28 09:28:52;;;;;;;65.40;21.38;;;4.80;99.90;;;;;;5042107;28;20028;-61
2024/02/28 09:31:18;;;;;;;70.63;22.40;;;4.90;99.90;;;;;;5040658;28;20082;-61
2024/02/28 09:33:45;;;;;;;69.60;22.48;;;4.90;99.90;;;;;;5039586;28;20071;-61
2024/02/28 09:36:11;;;;;;;79.13;24.33;;;5.00;99.90;;;;;;5040662;28;20029;-61
2024/02/28 09:38:37;;;;;;;68.55;23.13;;;5.00;99.90;;;;;;5038905;28;20504;-61
2024/02/28 09:41:03;;;;;;;67.82;23.83;;;5.10;99.90;;;;;;5040738;28;20025;-61
2024/02/28 09:43:32;;;;;;;65.43;23.20;;;5.20;99.90;;;;;;5037325;28;20022;-61
2024/02/28 09:46:03;;;;;;;60.42;21.33;;;5.40;99.90;;;;;;5036345;28;20029;-62
2024/02/28 09:48:30;;;;;;;61.60;21.40;;;5.50;99.90;;;;;;5034947;28;20029;-62
2024/02/28 09:50:57;;;;;;;69.50;24.42;;;5.50;99.90;;;;;;5040022;28;20036;-62
2024/02/28 09:53:23;;;;;;;40.53;18.55;;;5.50;99.90;;;;;;5041095;28;20068;-64
2024/02/28 09:55:50;;;;;;;67.13;23.73;;;5.30;99.90;;;;;;5044296;28;20040;-62
2024/02/28 09:58:17;;;;;;;55.25;18.45;;;5.30;99.90;;;;;;5039384;28;20041;-62
2024/02/28 10:00:44;;;;;;;56.70;20.17;;;5.40;99.90;;;;;;5041280;28;20026;-62
2024/02/28 10:03:12;;;;;;;58.92;20.77;;;5.60;99.90;;;;;;5043472;28;20025;-62
2024/02/28 10:05:38;;;;;;;57.22;20.30;;;5.70;99.90;;;;;;5038044;28;20033;-63
2024/02/28 10:08:05;;;;;;;58.10;20.90;;;5.90;99.90;;;;;;5041972;28;20029;-63
2024/02/28 10:10:31;;;;;;;64.40;24.75;;;6.10;99.90;;;;;;5040087;28;20467;-63
2024/02/28 10:12:58;;;;;;;56.78;20.65;;;6.30;99.90;;;;;;5041643;28;20025;-61
2024/02/28 10:15:26;;;;;;;54.30;18.58;;;6.30;99.90;;;;;;5041902;28;20017;-63
2024/02/28 10:17:52;;;;;;;54.67;17.08;;;6.80;99.90;;;;;;5047767;28;20433;-63
2024/02/28 10:20:17;;;;;;;50.88;19.38;;;7.40;99.90;;;;;;5044040;28;20100;-63
2024/02/28 10:22:43;;;;;;;47.97;17.33;;;7.90;99.90;;;;;;5046901;28;20434;-63
2024/02/28 10:25:09;;;;;;;48.85;18.48;;;8.60;99.90;;;;;;5045908;28;20415;-63
2024/02/28 10:27:35;;;;;;;47.83;16.95;;;9.10;99.90;;;;;;5046820;28;20253;-63
2024/02/28 10:30:04;;;;;;;48.25;18.30;;;9.60;99.90;;;;;;5045835;28;20072;-63
2024/02/28 10:32:33;;;;;;;46.63;16.50;;;9.90;99.90;;;;;;5048116;28;20035;-63
2024/02/28 10:35:00;;;;;;;46.90;17.67;;;10.00;99.90;;;;;;5044895;28;20349;-63
2024/02/28 10:37:30;;;;;;;45.03;17.60;;;10.20;99.90;;;;;;5041754;28;20033;-63
2024/02/28 10:39:57;;;;;;;45.47;18.67;;;10.30;99.90;;;;;;5045108;28;20472;-63
2024/02/28 10:42:26;;;;;;;45.08;16.75;;;10.60;99.90;;;;;;5044270;28;20033;-63
2024/02/28 10:44:53;;;;;;;46.72;18.10;;;10.90;99.90;;;;;;5045021;28;20108;-63
2024/02/28 10:47:19;;;;;;;48.40;18.23;;;11.20;99.90;;;;;;5046135;28;20071;-63
2024/02/28 10:49:45;;;;;;;49.97;19.15;;;10.80;99.90;;;;;;5040008;28;20052;-64
2024/02/28 10:52:13;;;;;;;43.55;17.25;;;10.60;99.90;;;;;;5039009;28;20492;-63
2024/02/28 10:54:43;;;;;;;47.63;17.52;;;10.40;99.90;;;;;;5042395;28;20083;-63
2024/02/28 10:57:12;;;;;;;49.20;17.98;;;10.20;99.90;;;;;;5039733;28;20033;-63
2024/02/28 10:59:39;;;;;;;39.63;17.38;;;10.50;99.90;;;;;;5042408;28;20183;-63
2024/02/28 11:02:05;;;;;;;42.95;17.17;;;11.10;99.90;;;;;;5041602;28;20116;-64
2024/02/28 11:04:31;;;;;;;41.40;17.13;;;11.80;99.90;;;;;;5040573;28;20029;-64
2024/02/28 11:06:57;;;;;;;42.00;16.55;;;12.40;99.90;;;;;;5039105;28;20032;-64
2024/02/28 11:09:27;;;;;;;36.40;15.70;;;12.90;99.90;;;;;;5046895;28;20146;-64
2024/02/28 11:11:55;;;;;;;41.40;16.77;;;13.10;99.50;;;;;;5037242;28;20034;-63
2024/02/28 11:14:22;;;;;;;40.63;17.15;;;13.00;99.70;;;;;;5041770;28;20048;-63
2024/02/28 11:16:58;;;;;;;45.20;19.10;;;13.20;99.90;;;;;;5039854;28;20377;-63
2024/02/28 11:19:24;;;;;;;34.70;13.15;;;13.10;99.10;;;;;;5047156;28;20087;-63
2024/02/28 11:21:57;;;;;;;39.70;16.25;;;13.20;96.50;;;;;;5042452;28;20041;-64
2024/02/28 11:24:25;;;;;;;36.20;15.80;;;12.90;99.70;;;;;;5044000;28;20038;-63
2024/02/28 11:26:52;;;;;;;37.97;15.88;;;13.20;99.20;;;;;;5042571;28;20104;-65
2024/02/28 11:29:24;;;;;;;37.85;15.07;;;13.90;97.70;;;;;;5045993;28;20029;-64
2024/02/28 11:31:50;;;;;;;41.03;15.90;;;14.40;94.50;;;;;;5045213;28;20035;-64
2024/02/28 11:34:16;;;;;;;34.25;15.25;;;14.10;95.70;;;;;;5043600;28;20101;-64
2024/02/28 11:36:41;;;;;;;35.90;16.05;;;14.20;94.50;;;;;;5049674;28;20098;-68
2024/02/28 11:39:07;;;;;;;34.45;14.57;;;14.30;95.80;;;;;;5041030;28;20021;-64
2024/02/28 11:41:33;;;;;;;38.17;16.42;;;14.50;93.80;;;;;;5041771;28;20172;-64
2024/02/28 11:43:58;;;;;;;38.25;14.82;;;14.70;92.20;;;;;;5041547;28;20025;-64
2024/02/28 11:46:24;;;;;;;38.03;15.45;;;15.10;91.80;;;;;;5045349;28;20033;-63
2024/02/28 11:48:50;;;;;;;36.90;14.95;;;15.30;89.40;;;;;;5043967;28;20154;-63
2024/02/28 11:51:15;;;;;;;35.08;14.57;;;14.90;91.70;;;;;;5044012;28;20029;-63
2024/02/28 11:53:41;;;;;;;36.00;14.05;;;14.40;91.60;;;;;;5045063;28;20456;-64
2024/02/28 11:56:08;;;;;;;33.30;14.10;;;14.00;95.20;;;;;;5041239;28;20041;-63
2024/02/28 11:58:33;;;;;;;34.50;14.18;;;14.10;92.90;;;;;;5041360;28;20465;-63
2024/02/28 12:00:59;;;;;;;35.90;14.65;;;14.20;91.10;;;;;;5037107;28;20095;-63
2024/02/28 12:03:26;;;;;;;35.60;13.88;;;13.90;94.50;;;;;;5041121;28;20536;-63
2024/02/28 12:05:52;;;;;;;34.85;14.10;;;13.80;95.70;;;;;;5039986;28;20026;-64
2024/02/28 12:08:19;;;;;;;37.65;15.45;;;13.70;93.80;;;;;;5043516;28;20029;-64
2024/02/28 12:10:46;;;;;;;31.15;12.18;;;13.90;94.70;;;;;;5042965;28;20464;-64
2024/02/28 12:13:16;;;;;;;36.83;14.45;;;14.40;92.00;;;;;;5040595;28;20045;-64
2024/02/28 12:15:42;;;;;;;40.15;14.13;;;14.20;94.00;;;;;;5039891;28;20045;-64
2024/02/28 12:18:11;;;;;;;32.28;13.48;;;14.20;91.60;;;;;;5040587;28;20037;-63
2024/02/28 12:20:37;;;;;;;33.50;15.30;;;14.30;93.80;;;;;;5041628;28;20032;-64
2024/02/28 12:23:04;;;;;;;35.03;14.75;;;14.50;90.10;;;;;;5040205;28;20037;-63